Impacts METAR Board INFO
IDs:

KPDX - Portland Intl Arpt, OR, US

Updated at: 0420 UTC 18 Jan 2018
Potential Impact None Slight Moderate High
Time17/16Z 17/17Z 17/18Z 17/19Z 17/20Z 17/21Z 17/22Z 17/23Z 18/00Z 18/01Z 18/02Z 18/03Z 18/04Z
VIS10 10 10 10 10 10 10 10 10 7 5 5 4
CIG240 240 240 200 200 200 170 100 80 70 48 55 13
CoverOVCOVCOVCOVCOVCOVCOVCOVCOVCOVCOVCOVCOVC
FltCatVFRVFRVFRVFRVFRVFRVFRVFRVFRVFRMVFRMVFRMVFR
WX-----------------RA-RA-RA BRRA BRRA BR
WDir120120120120120140150110130130120110140
WSpd14 15 15 14 17 10 16 14 9 9 9 15 7
WGst-- -- -- -- -- -- -- -- -- -- -- 23 --
Raw hourly METARs
KPDX 171553Z 12014KT 10SM FEW060 OVC240 09/04 A2999 RMK AO2 SLP154 T00890044
KPDX 171653Z 12015KT 10SM FEW060 OVC240 09/04 A2997 RMK AO2 SLP149 T00890044
KPDX 171753Z 12015KT 10SM FEW150 OVC240 09/04 A2995 RMK AO2 SLP140 ACSL NE 60001 T00890044 10094 20078 58020
KPDX 171853Z 12014KT 10SM FEW090 OVC200 09/05 A2993 RMK AO2 SLP136 T00940050
KPDX 171953Z 12017KT 10SM FEW100 OVC200 10/04 A2988 RMK AO2 SLP118 T01000044
KPDX 172053Z 14010KT 10SM SCT100 OVC200 10/04 A2985 RMK AO2 SLP108 T01000044 58033
KPDX 172153Z 15016KT 10SM SCT100 BKN170 OVC250 11/04 A2983 RMK AO2 SLP100 T01110044
KPDX 172253Z 11014KT 10SM BKN100 BKN150 OVC260 10/04 A2981 RMK AO2 SLP095 T01000044
KPDX 172353Z 13009KT 10SM -RA SCT065 BKN080 OVC090 10/05 A2983 RMK AO2 RAB42 SLP099 P0000 60000 T01000050 10111 20089 55009
KPDX 180053Z 13009KT 7SM -RA OVC070 09/06 A2985 RMK AO2 SLP108 P0007 T00890061
KPDX 180153Z 12009KT 5SM -RA BR BKN048 OVC060 08/07 A2986 RMK AO2 SLP109 P0007 T00830067
KPDX 180253Z 11015G23KT 5SM RA BR FEW020 BKN055 OVC080 08/08 A2984 RMK AO2 SLP105 P0014 60028 T00780078 50006
KPDX 180353Z 14007KT 4SM RA BR SCT008 BKN013 OVC025 08/08 A2986 RMK AO2 SLP112 P0011 T00830083